Time,TemperatureF,DewpointF,PressureIn,WindDirection,WindDirectionDegrees,WindSpeedMPH,WindSpeedGustMPH,Humidity,HourlyPrecipIn,Conditions,Clouds,dailyrainin,SoftwareType,DateUTC
2013-05-15 00:01:00,66.0,30.1,30.15,SSE,158,3.5,0.0,26,0.00,CLR,,0.00,WeatherDisplay:10.37,2013-05-15 05:01:00,
2013-05-15 00:06:00,66.2,30.3,30.15,SSE,158,3.5,0.0,26,0.00,CLR,,0.00,WeatherDisplay:10.37,2013-05-15 05:06:00,
2013-05-15 00:11:00,66.4,31.4,30.15,SSE,158,3.5,0.0,27,0.00,CLR,,0.00,WeatherDisplay:10.37,2013-05-15 05:11:00,
2013-05-15 00:16:00,66.6,31.5,30.18,SSE,158,3.5,0.0,27,0.00,CLR,,0.00,WeatherDisplay:10.37,2013-05-15 05:16:00,
2013-05-15 00:21:00,66.6,31.5,30.18,SSE,158,3.5,0.0,27,0.00,CLR,,0.00,WeatherDisplay:10.37,2013-05-15 05:21:00,
2013-05-15 00:26:00,66.7,31.7,30.18,SSE,158,3.5,0.0,27,0.00,CLR,,0.00,WeatherDisplay:10.37,2013-05-15 05:26:00,
2013-05-15 00:31:00,66.7,31.7,30.18,SSE,158,3.5,0.0,27,0.00,CLR,,0.00,WeatherDisplay:10.37,2013-05-15 05:31:00,
2013-05-15 00:36:00,66.7,32.6,30.18,SSE,158,3.5,0.0,28,0.00,CLR,,0.00,WeatherDisplay:10.37,2013-05-15 05:36:00,
2013-05-15 00:41:00,66.7,32.6,30.18,SSE,158,3.5,0.0,28,0.00,CLR,,0.00,WeatherDisplay:10.37,2013-05-15 05:41:00,
2013-05-15 00:46:00,66.6,32.4,30.18,SSE,158,3.5,0.0,28,0.00,CLR,,0.00,WeatherDisplay:10.37,2013-05-15 05:46:00,
2013-05-15 00:51:00,66.4,32.3,30.18,SSE,158,3.5,0.0,28,0.00,CLR,,0.00,WeatherDisplay:10.37,2013-05-15 05:51:00,
2013-05-15 00:56:00,66.2,32.1,30.18,SSE,158,3.5,0.0,28,0.00,CLR,,0.00,WeatherDisplay:10.37,2013-05-15 05:56:00,
2013-05-15 01:02:00,66.2,32.1,30.18,SSE,158,3.5,0.0,28,0.00,CLR,,0.00,WeatherDisplay:10.37,2013-05-15 06:02:00,
2013-05-15 01:07:00,66.2,32.1,30.18,SSE,158,3.5,0.0,28,0.00,CLR,,0.00,WeatherDisplay:10.37,2013-05-15 06:07:00,
2013-05-15 01:12:00,66.4,33.1,30.18,SSE,158,3.5,0.0,29,0.00,CLR,,0.00,WeatherDisplay:10.37,2013-05-15 06:12:00,
2013-05-15 01:17:00,66.4,33.1,30.18,SSE,158,3.5,0.0,29,0.00,CLR,,0.00,WeatherDisplay:10.37,2013-05-15 06:17:00,
2013-05-15 01:22:00,66.6,33.3,30.18,SSE,158,3.5,0.0,29,0.00,CLR,,0.00,WeatherDisplay:10.37,2013-05-15 06:22:00,
2013-05-15 01:27:00,66.6,33.3,30.18,SSE,158,3.5,0.0,29,0.00,CLR,,0.00,WeatherDisplay:10.37,2013-05-15 06:27:00,
2013-05-15 01:32:00,66.4,33.1,30.18,SSE,158,3.5,0.0,29,0.00,CLR,,0.00,WeatherDisplay:10.37,2013-05-15 06:32:00,
2013-05-15 01:37:00,66.4,34.0,30.18,SSE,158,3.5,0.0,30,0.00,CLR,,0.00,WeatherDisplay:10.37,2013-05-15 06:37:00,
2013-05-15 01:42:00,66.6,34.1,30.18,SSE,158,3.5,0.0,30,0.00,CLR,,0.00,WeatherDisplay:10.37,2013-05-15 06:42:00,
2013-05-15 01:47:00,66.6,34.1,30.18,SSE,158,3.5,0.0,30,0.00,CLR,,0.00,WeatherDisplay:10.37,2013-05-15 06:47:00,
2013-05-15 01:52:00,66.6,35.0,30.18,SSE,158,3.5,0.0,31,0.00,CLR,,0.00,WeatherDisplay:10.37,2013-05-15 06:52:00,
2013-05-15 01:57:00,66.7,35.1,30.18,SSE,158,3.5,0.0,31,0.00,CLR,,0.00,WeatherDisplay:10.37,2013-05-15 06:57:00,
2013-05-15 02:02:00,66.6,35.0,30.15,SSE,158,3.5,0.0,31,0.00,CLR,,0.00,WeatherDisplay:10.37,2013-05-15 07:02:00,
2013-05-15 02:07:00,66.4,34.8,30.15,SSE,158,3.5,0.0,31,0.00,CLR,,0.00,WeatherDisplay:10.37,2013-05-15 07:07:00,
2013-05-15 02:12:00,66.2,34.7,30.15,SSE,158,3.5,0.0,31,0.00,CLR,,0.00,WeatherDisplay:10.37,2013-05-15 07:12:00,
2013-05-15 02:17:00,66.0,34.5,30.18,SSE,158,3.5,0.0,31,0.00,CLR,,0.00,WeatherDisplay:10.37,2013-05-15 07:17:00,
2013-05-15 02:22:00,66.0,35.3,30.18,SSE,158,3.5,0.0,32,0.00,CLR,,0.00,WeatherDisplay:10.37,2013-05-15 07:22:00,
2013-05-15 02:27:00,66.0,35.3,30.18,SSE,158,3.5,0.0,32,0.00,CLR,,0.00,WeatherDisplay:10.37,2013-05-15 07:27:00,
2013-05-15 02:32:00,66.0,35.3,30.18,SSE,158,3.5,0.0,32,0.00,CLR,,0.00,WeatherDisplay:10.37,2013-05-15 07:32:00,
2013-05-15 02:37:00,66.0,35.3,30.18,SSE,158,3.5,0.0,32,0.00,CLR,,0.00,WeatherDisplay:10.37,2013-05-15 07:37:00,
2013-05-15 02:42:00,65.8,35.9,30.18,SSE,158,3.5,0.0,33,0.00,CLR,,0.00,WeatherDisplay:10.37,2013-05-15 07:42:00,
2013-05-15 02:47:00,65.5,35.6,30.18,SSE,158,3.5,0.0,33,0.00,CLR,,0.00,WeatherDisplay:10.37,2013-05-15 07:47:00,
2013-05-15 02:52:00,65.5,35.6,30.18,SSE,158,3.5,0.0,33,0.00,CLR,,0.00,WeatherDisplay:10.37,2013-05-15 07:52:00,
2013-05-15 02:57:00,65.1,35.3,30.18,SSE,158,3.5,0.0,33,0.00,CLR,,0.00,WeatherDisplay:10.37,2013-05-15 07:57:00,
2013-05-15 03:02:00,64.9,35.1,30.18,SSE,158,3.5,0.0,33,0.00,CLR,,0.00,WeatherDisplay:10.37,2013-05-15 08:02:00,
2013-05-15 03:07:00,64.6,34.8,30.18,SSE,158,3.5,0.0,33,0.00,CLR,,0.00,WeatherDisplay:10.37,2013-05-15 08:07:00,
2013-05-15 03:12:00,64.4,34.6,30.18,SSE,158,3.5,0.0,33,0.00,CLR,,0.00,WeatherDisplay:10.37,2013-05-15 08:12:00,
2013-05-15 03:17:00,64.2,34.5,30.18,SSE,158,3.5,0.0,33,0.00,CLR,,0.00,WeatherDisplay:10.37,2013-05-15 08:17:00,
2013-05-15 03:22:00,63.9,34.2,30.18,SSE,158,3.5,0.0,33,0.00,CLR,,0.00,WeatherDisplay:10.37,2013-05-15 08:22:00,
2013-05-15 03:27:00,63.5,33.9,30.18,SSE,158,3.5,0.0,33,0.00,CLR,,0.00,WeatherDisplay:10.37,2013-05-15 08:27:00,
2013-05-15 03:32:00,63.1,33.5,30.18,SSE,158,3.5,0.0,33,0.00,CLR,,0.00,WeatherDisplay:10.37,2013-05-15 08:32:00,
2013-05-15 03:37:00,63.1,34.3,30.18,SSE,158,3.5,0.0,34,0.00,CLR,,0.00,WeatherDisplay:10.37,2013-05-15 08:37:00,
2013-05-15 03:42:00,63.1,34.3,30.18,SSE,158,3.5,0.0,34,0.00,CLR,,0.00,WeatherDisplay:10.37,2013-05-15 08:42:00,
2013-05-15 03:47:00,63.5,34.6,30.15,SSE,158,3.5,0.0,34,0.00,CLR,,0.00,WeatherDisplay:10.37,2013-05-15 08:47:00,
2013-05-15 03:52:00,63.9,34.9,30.15,SSE,158,3.5,0.0,34,0.00,CLR,,0.00,WeatherDisplay:10.37,2013-05-15 08:52:00,
2013-05-15 03:58:00,64.2,35.2,30.15,SSE,158,3.5,0.0,34,0.00,CLR,,0.00,WeatherDisplay:10.37,2013-05-15 08:58:00,
2013-05-15 04:03:00,64.4,35.4,30.18,SSE,158,3.5,0.0,34,0.00,CLR,,0.00,WeatherDisplay:10.37,2013-05-15 09:03:00,
2013-05-15 04:08:00,64.8,35.7,30.18,SSE,158,3.5,0.0,34,0.00,CLR,,0.00,WeatherDisplay:10.37,2013-05-15 09:08:00,
2013-05-15 04:13:00,64.9,35.9,30.18,SSE,158,3.5,0.0,34,0.00,CLR,,0.00,WeatherDisplay:10.37,2013-05-15 09:13:00,
2013-05-15 04:18:00,65.1,36.0,30.18,SSE,158,3.5,0.0,34,0.00,CLR,,0.00,WeatherDisplay:10.37,2013-05-15 09:18:00,
2013-05-15 04:23:00,65.5,36.4,30.18,SSE,158,3.5,0.0,34,0.00,CLR,,0.00,WeatherDisplay:10.37,2013-05-15 09:23:00,
2013-05-15 04:28:00,65.5,36.4,30.18,SSE,158,3.5,0.0,34,0.00,CLR,,0.00,WeatherDisplay:10.37,2013-05-15 09:28:00,
2013-05-15 04:33:00,65.5,36.4,30.18,SSE,158,3.5,0.0,34,0.00,CLR,,0.00,WeatherDisplay:10.37,2013-05-15 09:33:00,
2013-05-15 04:38:00,65.5,36.4,30.18,SSE,158,3.5,0.0,34,0.00,CLR,,0.00,WeatherDisplay:10.37,2013-05-15 09:38:00,
2013-05-15 04:43:00,65.5,36.4,30.18,SSE,158,3.5,0.0,34,0.00,CLR,,0.00,WeatherDisplay:10.37,2013-05-15 09:43:00,
2013-05-15 04:48:00,65.5,36.4,30.18,SSE,158,3.5,0.0,34,0.00,CLR,,0.00,WeatherDisplay:10.37,2013-05-15 09:48:00,
2013-05-15 04:53:00,65.1,36.0,30.18,SSE,158,3.5,0.0,34,0.00,CLR,,0.00,WeatherDisplay:10.37,2013-05-15 09:53:00,
2013-05-15 04:58:00,65.1,36.0,30.18,SSE,158,3.5,0.0,34,0.00,CLR,,0.00,WeatherDisplay:10.37,2013-05-15 09:58:00,
2013-05-15 05:03:00,65.1,36.8,30.18,SSE,158,3.5,0.0,35,0.00,CLR,,0.00,WeatherDisplay:10.37,2013-05-15 10:03:00,
2013-05-15 05:08:00,65.1,36.8,30.18,SSE,158,3.5,0.0,35,0.00,CLR,,0.00,WeatherDisplay:10.37,2013-05-15 10:08:00,
2013-05-15 05:13:00,64.9,36.6,30.18,SSE,158,3.5,0.0,35,0.00,CLR,,0.00,WeatherDisplay:10.37,2013-05-15 10:13:00,
2013-05-15 05:18:00,65.1,36.8,30.18,SSE,158,3.5,0.0,35,0.00,CLR,,0.00,WeatherDisplay:10.37,2013-05-15 10:18:00,
2013-05-15 05:23:00,65.3,36.9,30.18,SSE,158,3.5,0.0,35,0.00,CLR,,0.00,WeatherDisplay:10.37,2013-05-15 10:23:00,
2013-05-15 05:28:00,64.9,36.6,30.18,SSE,158,3.5,0.0,35,0.00,CLR,,0.00,WeatherDisplay:10.37,2013-05-15 10:28:00,
2013-05-15 05:33:00,64.9,36.6,30.18,SSE,158,3.5,0.0,35,0.00,CLR,,0.00,WeatherDisplay:10.37,2013-05-15 10:33:00,
2013-05-15 05:38:00,65.1,36.8,30.18,SSE,158,3.5,0.0,35,0.00,CLR,,0.00,WeatherDisplay:10.37,2013-05-15 10:38:00,
2013-05-15 05:43:00,64.9,36.6,30.18,SSE,158,3.5,0.0,35,0.00,CLR,,0.00,WeatherDisplay:10.37,2013-05-15 10:43:00,
2013-05-15 05:48:00,64.9,36.6,30.18,SSE,158,3.5,0.0,35,0.00,CLR,,0.00,WeatherDisplay:10.37,2013-05-15 10:48:00,
2013-05-15 05:53:00,64.8,36.5,30.18,SSE,158,3.5,0.0,35,0.00,CLR,,0.00,WeatherDisplay:10.37,2013-05-15 10:53:00,
2013-05-15 05:58:00,64.8,36.5,30.18,SSE,158,3.5,0.0,35,0.00,CLR,,0.00,WeatherDisplay:10.37,2013-05-15 10:58:00,
2013-05-15 06:04:00,64.8,36.5,30.15,SSE,158,3.5,0.0,35,0.00,CLR,,0.00,WeatherDisplay:10.37,2013-05-15 11:04:00,
2013-05-15 06:09:00,64.4,36.1,30.15,SSE,158,3.5,0.0,35,0.00,CLR,,0.00,WeatherDisplay:10.37,2013-05-15 11:09:00,
2013-05-15 06:14:00,64.2,36.0,30.18,SSE,158,3.5,0.0,35,0.00,CLR,,0.00,WeatherDisplay:10.37,2013-05-15 11:14:00,
2013-05-15 06:20:00,64.2,36.0,30.18,SSE,158,3.5,0.0,35,0.00,CLR,,0.00,WeatherDisplay:10.37,2013-05-15 11:20:00,
2013-05-15 06:25:00,64.2,36.7,30.18,SSE,158,3.5,0.0,36,0.00,CLR,,0.00,WeatherDisplay:10.37,2013-05-15 11:25:00,
2013-05-15 06:30:00,64.6,37.0,30.18,SSE,158,3.5,0.0,36,0.00,CLR,,0.00,WeatherDisplay:10.37,2013-05-15 11:30:00,
2013-05-15 06:35:00,64.8,37.2,30.18,SSE,158,3.5,0.0,36,0.00,CLR,,0.00,WeatherDisplay:10.37,2013-05-15 11:35:00,
2013-05-15 06:41:00,64.8,37.2,30.18,SSE,158,3.5,0.0,36,0.00,CLR,,0.00,WeatherDisplay:10.37,2013-05-15 11:41:00,
2013-05-15 06:46:00,64.8,37.2,30.18,SE,135,0.0,0.0,36,0.00,CLR,,0.00,WeatherDisplay:10.37,2013-05-15 11:46:00,
2013-05-15 06:51:00,64.8,37.2,30.18,SE,135,0.0,0.0,36,0.00,CLR,,0.00,WeatherDisplay:10.37,2013-05-15 11:51:00,
2013-05-15 06:56:00,65.1,38.2,30.18,SE,135,0.0,0.0,37,0.00,CLR,,0.00,WeatherDisplay:10.37,2013-05-15 11:56:00,
2013-05-15 07:02:00,65.5,38.5,30.18,SE,135,0.0,0.0,37,0.00,CLR,,0.00,WeatherDisplay:10.37,2013-05-15 12:02:00,
2013-05-15 07:07:00,65.7,38.7,30.18,SE,135,0.0,0.0,37,0.00,CLR,,0.00,WeatherDisplay:10.37,2013-05-15 12:07:00,
2013-05-15 07:12:00,66.0,39.7,30.18,SE,135,0.0,0.0,38,0.00,CLR,,0.00,WeatherDisplay:10.37,2013-05-15 12:12:00,
2013-05-15 07:17:00,66.9,41.1,30.18,SE,135,0.0,0.0,39,0.00,CLR,,0.00,WeatherDisplay:10.37,2013-05-15 12:17:00,
2013-05-15 07:22:00,68.0,42.1,30.18,SE,135,0.0,0.0,39,0.00,CLR,,0.00,WeatherDisplay:10.37,2013-05-15 12:22:00,
2013-05-15 07:28:00,69.4,43.4,30.18,SE,135,0.0,0.0,39,0.00,CLR,,0.00,WeatherDisplay:10.37,2013-05-15 12:28:00,
2013-05-15 07:34:00,71.2,45.0,30.18,SE,135,0.0,0.0,39,0.00,CLR,,0.00,WeatherDisplay:10.37,2013-05-15 12:34:00,
2013-05-15 07:39:00,72.3,44.6,30.18,SE,135,0.0,0.0,37,0.00,CLR,,0.00,WeatherDisplay:10.37,2013-05-15 12:39:00,
2013-05-15 07:44:00,73.2,43.9,30.18,SE,135,0.0,0.0,35,0.00,CLR,,0.00,WeatherDisplay:10.37,2013-05-15 12:44:00,
2013-05-15 07:49:00,73.6,42.7,30.18,SE,135,0.0,0.0,33,0.00,CLR,,0.00,WeatherDisplay:10.37,2013-05-15 12:49:00,
2013-05-15 07:54:00,74.1,43.2,30.18,SE,135,0.0,0.0,33,0.00,CLR,,0.00,WeatherDisplay:10.37,2013-05-15 12:54:00,
2013-05-15 08:00:00,74.8,43.8,30.18,SE,135,0.0,0.0,33,0.00,CLR,,0.00,WeatherDisplay:10.37,2013-05-15 13:00:00,
2013-05-15 08:05:00,75.6,43.6,30.18,SE,135,0.0,0.0,32,0.00,CLR,,0.00,WeatherDisplay:10.37,2013-05-15 13:05:00,
2013-05-15 08:10:00,76.1,43.3,30.18,SE,135,0.0,0.0,31,0.00,CLR,,0.00,WeatherDisplay:10.37,2013-05-15 13:10:00,
2013-05-15 08:15:00,76.5,40.0,30.18,SE,135,0.0,0.0,27,0.00,CLR,,0.00,WeatherDisplay:10.37,2013-05-15 13:15:00,
2013-05-15 08:21:00,76.6,36.0,30.18,SE,135,0.0,0.0,23,0.00,CLR,,0.00,WeatherDisplay:10.37,2013-05-15 13:21:00,
2013-05-15 08:26:00,76.3,34.6,30.18,SE,135,0.0,0.0,22,0.00,CLR,,0.00,WeatherDisplay:10.37,2013-05-15 13:26:00,
2013-05-15 08:32:00,76.8,33.9,30.18,SE,135,0.0,0.0,21,0.00,CLR,,0.00,WeatherDisplay:10.37,2013-05-15 13:32:00,
2013-05-15 08:38:00,78.1,35.0,30.18,SE,135,0.0,0.0,21,0.00,CLR,,0.00,WeatherDisplay:10.37,2013-05-15 13:38:00,
2013-05-15 08:44:00,78.1,33.7,30.18,South,180,0.0,3.3,20,0.00,CLR,,0.00,WeatherDisplay:10.37,2013-05-15 13:44:00,
2013-05-15 08:49:00,78.8,34.3,30.18,South,180,4.9,4.9,20,0.00,CLR,,0.00,WeatherDisplay:10.37,2013-05-15 13:49:00,
2013-05-15 08:54:00,78.6,34.2,30.18,South,180,4.6,4.6,20,0.00,CLR,,0.00,WeatherDisplay:10.37,2013-05-15 13:54:00,
2013-05-15 09:00:00,78.1,31.1,30.18,South,180,4.9,4.9,18,0.00,CLR,,0.00,WeatherDisplay:10.37,2013-05-15 14:00:00,
2013-05-15 09:05:00,76.8,30.1,30.18,South,180,4.9,4.9,18,0.00,CLR,,0.00,WeatherDisplay:10.37,2013-05-15 14:05:00,
2013-05-15 09:10:00,75.7,31.8,30.18,South,180,4.6,4.6,20,0.00,CLR,,0.00,WeatherDisplay:10.37,2013-05-15 14:10:00,
2013-05-15 09:15:00,76.8,32.7,30.18,South,180,4.6,4.6,20,0.00,CLR,,0.00,WeatherDisplay:10.37,2013-05-15 14:15:00,
2013-05-15 09:20:00,77.0,32.8,30.18,South,180,4.6,4.6,20,0.00,CLR,,0.00,WeatherDisplay:10.37,2013-05-15 14:20:00,
2013-05-15 09:25:00,77.2,33.0,30.18,South,180,4.6,4.6,20,0.00,CLR,,0.00,WeatherDisplay:10.37,2013-05-15 14:25:00,
2013-05-15 09:30:00,78.4,34.0,30.18,SSE,158,2.3,2.3,20,0.00,CLR,,0.00,WeatherDisplay:10.37,2013-05-15 14:30:00,
2013-05-15 09:36:00,79.7,35.1,30.18,SSE,158,2.3,2.3,20,0.00,CLR,,0.00,WeatherDisplay:10.37,2013-05-15 14:36:00,
2013-05-15 09:41:00,81.0,32.0,30.18,SSW,202,1.2,3.6,17,0.00,CLR,,0.00,WeatherDisplay:10.37,2013-05-15 14:41:00,
2013-05-15 09:47:00,81.3,27.5,30.18,SSW,202,2.3,3.6,14,0.00,CLR,,0.00,WeatherDisplay:10.37,2013-05-15 14:47:00,
2013-05-15 09:52:00,80.8,27.1,30.18,SSW,202,2.3,3.6,14,0.00,CLR,,0.00,WeatherDisplay:10.37,2013-05-15 14:52:00,
2013-05-15 09:57:00,79.3,27.6,30.18,SSW,202,1.6,1.6,15,0.00,CLR,,0.00,WeatherDisplay:10.37,2013-05-15 14:57:00,
2013-05-15 10:03:00,80.4,28.5,30.18,SSW,202,1.2,1.2,15,0.00,CLR,,0.00,WeatherDisplay:10.37,2013-05-15 15:03:00,
2013-05-15 10:08:00,80.2,28.4,30.18,SSW,202,1.2,1.2,15,0.00,CLR,,0.00,WeatherDisplay:10.37,2013-05-15 15:08:00,
2013-05-15 10:13:00,80.4,28.5,30.18,SE,135,1.2,2.6,15,0.00,SCT,,0.00,WeatherDisplay:10.37,2013-05-15 15:13:00,
2013-05-15 10:19:00,80.4,28.5,30.18,SE,135,1.2,2.6,15,0.00,SCT,,0.00,WeatherDisplay:10.37,2013-05-15 15:19:00,
2013-05-15 10:24:00,79.5,27.8,30.18,SE,135,1.2,2.6,15,0.00,SCT,,0.00,WeatherDisplay:10.37,2013-05-15 15:24:00,
2013-05-15 10:30:00,79.9,28.1,30.18,SE,135,1.2,2.6,15,0.00,SCT,,0.00,WeatherDisplay:10.37,2013-05-15 15:30:00,
2013-05-15 10:35:00,80.1,28.2,30.18,SE,135,1.2,2.6,15,0.00,SCT,,0.00,WeatherDisplay:10.37,2013-05-15 15:35:00,
2013-05-15 10:40:00,80.4,28.5,30.18,SE,135,1.6,2.6,15,0.00,SCT,,0.00,WeatherDisplay:10.37,2013-05-15 15:40:00,
2013-05-15 10:45:00,80.8,27.1,30.18,SE,135,1.2,2.6,14,0.00,SCT,,0.00,WeatherDisplay:10.37,2013-05-15 15:45:00,
2013-05-15 10:51:00,82.0,28.1,30.18,WSW,248,2.3,3.6,14,0.00,SCT,,0.00,WeatherDisplay:10.37,2013-05-15 15:51:00,
2013-05-15 10:56:00,82.9,28.8,30.18,South,180,1.2,2.4,14,0.00,SCT,,0.00,WeatherDisplay:10.37,2013-05-15 15:56:00,
2013-05-15 11:01:00,83.8,29.5,30.18,South,180,1.2,2.4,14,0.00,FEW,,0.00,WeatherDisplay:10.37,2013-05-15 16:01:00,
2013-05-15 11:06:00,84.0,29.7,30.18,South,180,1.2,2.4,14,0.00,FEW,,0.00,WeatherDisplay:10.37,2013-05-15 16:06:00,
2013-05-15 11:12:00,84.2,28.0,30.18,South,180,1.2,2.4,13,0.00,FEW,,0.00,WeatherDisplay:10.37,2013-05-15 16:12:00,
2013-05-15 11:17:00,83.5,29.2,30.18,South,180,1.2,2.4,14,0.00,FEW,,0.00,WeatherDisplay:10.37,2013-05-15 16:17:00,
2013-05-15 11:22:00,82.6,28.5,30.18,SE,135,1.2,3.8,14,0.00,FEW,,0.00,WeatherDisplay:10.37,2013-05-15 16:22:00,
2013-05-15 11:28:00,82.0,28.1,30.18,SW,225,3.5,4.0,14,0.00,FEW,,0.00,WeatherDisplay:10.37,2013-05-15 16:28:00,
2013-05-15 11:33:00,81.5,27.7,30.18,SSW,202,5.8,5.8,14,0.00,FEW,,0.00,WeatherDisplay:10.37,2013-05-15 16:33:00,
2013-05-15 11:39:00,80.8,27.1,30.18,South,180,5.8,5.8,14,0.00,FEW,,0.00,WeatherDisplay:10.37,2013-05-15 16:39:00,
2013-05-15 11:45:00,80.6,27.0,30.18,South,180,3.5,3.5,14,0.00,FEW,,0.00,WeatherDisplay:10.37,2013-05-15 16:45:00,
2013-05-15 11:50:00,80.6,27.0,30.18,South,180,3.6,3.6,14,0.00,FEW,,0.00,WeatherDisplay:10.37,2013-05-15 16:50:00,
2013-05-15 11:55:00,80.6,27.0,30.18,ESE,112,4.6,4.6,14,0.00,FEW,,0.00,WeatherDisplay:10.37,2013-05-15 16:55:00,
2013-05-15 12:00:00,80.6,27.0,30.15,ESE,112,3.5,3.5,14,0.00,FEW,,0.00,WeatherDisplay:10.37,2013-05-15 17:00:00,
2013-05-15 12:05:00,79.7,27.9,30.15,ESE,112,3.5,3.5,15,0.00,FEW,,0.00,WeatherDisplay:10.37,2013-05-15 17:05:00,
2013-05-15 12:11:00,79.5,27.8,30.15,ESE,112,3.5,3.5,15,0.00,FEW,,0.00,WeatherDisplay:10.37,2013-05-15 17:11:00,
2013-05-15 12:16:00,79.5,27.8,30.12,ESE,112,3.5,3.5,15,0.00,FEW,,0.00,WeatherDisplay:10.37,2013-05-15 17:16:00,
2013-05-15 12:21:00,79.3,27.6,30.12,ESE,112,3.5,3.5,15,0.00,FEW,,0.00,WeatherDisplay:10.37,2013-05-15 17:21:00,
2013-05-15 12:26:00,78.6,27.1,30.12,ESE,112,3.5,3.5,15,0.00,FEW,,0.00,WeatherDisplay:10.37,2013-05-15 17:26:00,
2013-05-15 12:32:00,78.1,26.6,30.15,ESE,112,3.5,3.5,15,0.00,FEW,,0.00,WeatherDisplay:10.37,2013-05-15 17:32:00,
2013-05-15 12:37:00,77.9,26.5,30.15,ESE,112,3.5,3.5,15,0.00,FEW,,0.00,WeatherDisplay:10.37,2013-05-15 17:37:00,
2013-05-15 12:42:00,77.9,26.5,30.15,ESE,112,3.5,3.5,15,0.00,FEW,,0.00,WeatherDisplay:10.37,2013-05-15 17:42:00,
2013-05-15 12:47:00,78.1,26.6,30.15,ESE,112,3.5,3.5,15,0.00,FEW,,0.00,WeatherDisplay:10.37,2013-05-15 17:47:00,
2013-05-15 12:52:00,78.3,26.8,30.15,ESE,112,3.5,3.5,15,0.00,FEW,,0.00,WeatherDisplay:10.37,2013-05-15 17:52:00,
2013-05-15 12:57:00,78.4,26.9,30.15,ESE,112,3.5,3.5,15,0.00,FEW,,0.00,WeatherDisplay:10.37,2013-05-15 17:57:00,
2013-05-15 13:03:00,78.4,26.9,30.15,ESE,112,3.5,3.5,15,0.00,FEW,,0.00,WeatherDisplay:10.37,2013-05-15 18:03:00,
2013-05-15 13:08:00,78.3,26.8,30.15,ESE,112,3.5,3.5,15,0.00,FEW,,0.00,WeatherDisplay:10.37,2013-05-15 18:08:00,
2013-05-15 13:14:00,77.5,26.2,30.15,ESE,112,3.5,3.5,15,0.00,FEW,,0.00,WeatherDisplay:10.37,2013-05-15 18:14:00,
2013-05-15 13:19:00,77.7,26.4,30.12,ESE,112,3.5,3.5,15,0.00,FEW,,0.00,WeatherDisplay:10.37,2013-05-15 18:19:00,
2013-05-15 13:24:00,77.7,26.4,30.12,ESE,112,3.5,3.5,15,0.00,FEW,,0.00,WeatherDisplay:10.37,2013-05-15 18:24:00,
2013-05-15 13:29:00,77.7,26.4,30.12,South,180,4.6,4.6,15,0.00,FEW,,0.00,WeatherDisplay:10.37,2013-05-15 18:29:00,
2013-05-15 13:34:00,77.4,26.1,30.09,SSW,202,1.2,2.6,15,0.00,FEW,,0.00,WeatherDisplay:10.37,2013-05-15 18:34:00,
2013-05-15 13:39:00,76.8,25.6,30.09,SSW,202,4.6,4.6,15,0.00,FEW,,0.00,WeatherDisplay:10.37,2013-05-15 18:39:00,
2013-05-15 13:44:00,76.1,29.5,30.09,SSW,202,2.3,2.4,18,0.00,FEW,,0.00,WeatherDisplay:10.37,2013-05-15 18:44:00,
2013-05-15 13:50:00,75.7,29.2,30.09,SSE,158,4.6,4.6,18,0.00,FEW,,0.00,WeatherDisplay:10.37,2013-05-15 18:50:00,
2013-05-15 13:55:00,75.6,29.0,30.09,SSE,158,4.6,4.6,18,0.00,FEW,,0.00,WeatherDisplay:10.37,2013-05-15 18:55:00,
2013-05-15 14:00:00,75.6,31.6,30.09,SSE,158,4.6,4.6,20,0.00,FEW,,0.00,WeatherDisplay:10.37,2013-05-15 19:00:00,
2013-05-15 14:05:00,75.7,31.8,30.09,SSE,158,4.6,4.6,20,0.00,FEW,,0.00,WeatherDisplay:10.37,2013-05-15 19:05:00,
2013-05-15 14:10:00,75.6,31.6,30.09,SSE,158,4.6,4.6,20,0.00,FEW,,0.00,WeatherDisplay:10.37,2013-05-15 19:10:00,
2013-05-15 14:16:00,75.2,31.3,30.09,SSE,158,6.9,6.9,20,0.00,FEW,,0.00,WeatherDisplay:10.37,2013-05-15 19:16:00,
2013-05-15 14:22:00,75.0,32.4,30.09,SSE,158,3.5,3.5,21,0.00,FEW,,0.00,WeatherDisplay:10.37,2013-05-15 19:22:00,
2013-05-15 14:27:00,75.0,32.4,30.09,South,180,4.6,4.6,21,0.00,FEW,,0.00,WeatherDisplay:10.37,2013-05-15 19:27:00,
2013-05-15 14:32:00,75.2,31.3,30.06,South,180,4.6,4.6,20,0.00,FEW,,0.00,WeatherDisplay:10.37,2013-05-15 19:32:00,
2013-05-15 14:37:00,75.0,32.4,30.06,South,180,4.6,4.6,21,0.00,FEW,,0.00,WeatherDisplay:10.37,2013-05-15 19:37:00,
2013-05-15 14:42:00,75.2,31.3,30.06,South,180,4.6,4.6,20,0.00,FEW,,0.00,WeatherDisplay:10.37,2013-05-15 19:42:00,
2013-05-15 14:47:00,75.4,31.5,30.06,South,180,4.6,4.6,20,0.00,FEW,,0.00,WeatherDisplay:10.37,2013-05-15 19:47:00,
2013-05-15 14:53:00,75.4,31.5,30.06,South,180,4.6,4.6,20,0.00,FEW,,0.00,WeatherDisplay:10.37,2013-05-15 19:53:00,
2013-05-15 14:58:00,75.0,32.4,30.06,South,180,4.6,4.6,21,0.00,FEW,,0.00,WeatherDisplay:10.37,2013-05-15 19:58:00,
2013-05-15 15:03:00,75.0,32.4,30.06,South,180,4.6,4.6,21,0.00,SCT,,0.00,WeatherDisplay:10.37,2013-05-15 20:03:00,
2013-05-15 15:09:00,74.8,32.3,30.06,South,180,4.6,4.6,21,0.00,SCT,,0.00,WeatherDisplay:10.37,2013-05-15 20:09:00,
2013-05-15 15:14:00,75.0,32.4,30.06,South,180,4.6,4.6,21,0.00,SCT,,0.00,WeatherDisplay:10.37,2013-05-15 20:14:00,
2013-05-15 15:19:00,75.0,32.4,30.06,South,180,4.6,4.6,21,0.00,SCT,,0.00,WeatherDisplay:10.37,2013-05-15 20:19:00,
2013-05-15 15:25:00,75.0,32.4,30.06,South,180,4.6,4.6,21,0.00,SCT,,0.00,WeatherDisplay:10.37,2013-05-15 20:25:00,
2013-05-15 15:30:00,74.8,32.3,30.06,South,180,4.6,4.6,21,0.00,SCT,,0.00,WeatherDisplay:10.37,2013-05-15 20:30:00,
2013-05-15 15:36:00,74.8,32.3,30.06,South,180,4.6,4.6,21,0.00,SCT,,0.00,WeatherDisplay:10.37,2013-05-15 20:36:00,
2013-05-15 15:41:00,75.0,32.4,30.06,South,180,4.6,4.6,21,0.00,SCT,,0.00,WeatherDisplay:10.37,2013-05-15 20:41:00,
2013-05-15 15:47:00,74.8,32.3,30.03,South,180,4.6,4.6,21,0.00,SCT,,0.00,WeatherDisplay:10.37,2013-05-15 20:47:00,
2013-05-15 15:52:00,74.7,32.1,30.03,South,180,4.6,4.6,21,0.00,SCT,,0.00,WeatherDisplay:10.37,2013-05-15 20:52:00,
2013-05-15 15:57:00,74.7,32.1,30.03,South,180,4.6,4.6,21,0.00,SCT,,0.00,WeatherDisplay:10.37,2013-05-15 20:57:00,
2013-05-15 16:03:00,75.4,31.5,30.06,South,180,4.6,4.6,20,0.00,FEW,,0.00,WeatherDisplay:10.37,2013-05-15 21:03:00,
2013-05-15 16:08:00,75.4,31.5,30.06,South,180,4.6,4.6,20,0.00,FEW,,0.00,WeatherDisplay:10.37,2013-05-15 21:08:00,
2013-05-15 16:13:00,75.4,31.5,30.06,South,180,4.6,4.6,20,0.00,FEW,,0.00,WeatherDisplay:10.37,2013-05-15 21:13:00,
2013-05-15 16:18:00,75.2,28.8,30.03,South,180,4.6,4.6,18,0.00,FEW,,0.00,WeatherDisplay:10.37,2013-05-15 21:18:00,
2013-05-15 16:23:00,75.2,31.3,30.03,South,180,4.6,4.6,20,0.00,FEW,,0.00,WeatherDisplay:10.37,2013-05-15 21:23:00,
2013-05-15 16:28:00,75.2,31.3,30.03,South,180,4.6,4.6,20,0.00,FEW,,0.00,WeatherDisplay:10.37,2013-05-15 21:28:00,
2013-05-15 16:33:00,75.0,32.4,30.03,South,180,4.6,4.6,21,0.00,FEW,,0.00,WeatherDisplay:10.37,2013-05-15 21:33:00,
2013-05-15 16:38:00,74.8,32.3,30.03,South,180,4.6,4.6,21,0.00,FEW,,0.00,WeatherDisplay:10.37,2013-05-15 21:38:00,
2013-05-15 16:43:00,75.0,32.4,30.03,South,180,4.6,4.6,21,0.00,FEW,,0.00,WeatherDisplay:10.37,2013-05-15 21:43:00,
2013-05-15 16:48:00,75.0,28.6,30.03,South,180,4.6,4.6,18,0.00,FEW,,0.00,WeatherDisplay:10.37,2013-05-15 21:48:00,
2013-05-15 16:53:00,74.8,28.5,30.03,South,180,4.6,4.6,18,0.00,FEW,,0.00,WeatherDisplay:10.37,2013-05-15 21:53:00,
2013-05-15 16:59:00,74.8,32.3,30.03,South,180,4.6,4.6,21,0.00,FEW,,0.00,WeatherDisplay:10.37,2013-05-15 21:59:00,
2013-05-15 17:04:00,74.8,32.3,30.03,South,180,4.6,4.6,21,0.00,OVC,,0.00,WeatherDisplay:10.37,2013-05-15 22:04:00,
2013-05-15 17:09:00,75.0,32.4,30.03,South,180,4.6,4.6,21,0.00,OVC,,0.00,WeatherDisplay:10.37,2013-05-15 22:09:00,
2013-05-15 17:14:00,75.0,32.4,30.03,South,180,4.6,4.6,21,0.00,OVC,,0.00,WeatherDisplay:10.37,2013-05-15 22:14:00,
2013-05-15 17:19:00,75.0,32.4,30.03,South,180,4.6,4.6,21,0.00,OVC,,0.00,WeatherDisplay:10.37,2013-05-15 22:19:00,
2013-05-15 17:24:00,74.8,32.3,30.03,South,180,4.6,4.6,21,0.00,OVC,,0.00,WeatherDisplay:10.37,2013-05-15 22:24:00,
2013-05-15 17:30:00,74.8,32.3,30.00,South,180,4.6,4.6,21,0.00,OVC,,0.00,WeatherDisplay:10.37,2013-05-15 22:30:00,
2013-05-15 17:35:00,75.2,31.3,30.00,South,180,4.6,4.6,20,0.00,OVC,,0.00,WeatherDisplay:10.37,2013-05-15 22:35:00,
2013-05-15 17:40:00,75.2,31.3,30.00,South,180,4.6,4.6,20,0.00,OVC,,0.00,WeatherDisplay:10.37,2013-05-15 22:40:00,
2013-05-15 17:45:00,75.2,31.3,30.03,South,180,4.6,4.6,20,0.00,OVC,,0.00,WeatherDisplay:10.37,2013-05-15 22:45:00,
2013-05-15 17:51:00,75.7,31.8,30.03,South,180,4.6,4.6,20,0.00,OVC,,0.00,WeatherDisplay:10.37,2013-05-15 22:51:00,
2013-05-15 17:56:00,75.4,28.9,30.03,South,180,9.4,9.4,18,0.00,OVC,,0.00,WeatherDisplay:10.37,2013-05-15 22:56:00,
2013-05-15 18:02:00,75.2,28.8,30.00,South,180,9.2,9.2,18,0.00,OVC,,0.00,WeatherDisplay:10.37,2013-05-15 23:02:00,
2013-05-15 18:07:00,76.5,29.8,30.00,South,180,9.2,9.2,18,0.00,OVC,,0.00,WeatherDisplay:10.37,2013-05-15 23:07:00,
2013-05-15 18:12:00,76.8,30.1,30.00,South,180,9.2,9.2,18,0.00,OVC,,0.00,WeatherDisplay:10.37,2013-05-15 23:12:00,
2013-05-15 18:17:00,75.9,29.3,30.00,South,180,9.2,9.2,18,0.00,OVC,,0.00,WeatherDisplay:10.37,2013-05-15 23:17:00,
2013-05-15 18:22:00,75.4,28.9,30.00,South,180,9.2,9.2,18,0.00,OVC,,0.00,WeatherDisplay:10.37,2013-05-15 23:22:00,
2013-05-15 18:27:00,75.2,28.8,30.00,South,180,9.2,9.2,18,0.00,OVC,,0.00,WeatherDisplay:10.37,2013-05-15 23:27:00,
2013-05-15 18:32:00,75.0,28.6,29.97,South,180,9.4,9.4,18,0.00,OVC,,0.00,WeatherDisplay:10.37,2013-05-15 23:32:00,
2013-05-15 18:38:00,74.8,28.5,29.97,South,180,9.2,9.2,18,0.00,OVC,,0.00,WeatherDisplay:10.37,2013-05-15 23:38:00,
2013-05-15 18:44:00,75.0,32.4,29.97,SSW,202,5.8,5.8,21,0.00,OVC,,0.00,WeatherDisplay:10.37,2013-05-15 23:44:00,
2013-05-15 18:49:00,76.3,32.2,29.97,SSW,202,5.8,5.8,20,0.00,OVC,,0.00,WeatherDisplay:10.37,2013-05-15 23:49:00,
2013-05-15 18:54:00,75.9,29.3,29.97,SE,135,3.5,3.5,18,0.00,OVC,,0.00,WeatherDisplay:10.37,2013-05-15 23:54:00,
2013-05-15 18:59:00,75.6,29.0,29.97,SE,135,3.5,3.5,18,0.00,OVC,,0.00,WeatherDisplay:10.37,2013-05-15 23:59:00,
2013-05-15 19:04:00,75.2,28.8,29.97,SE,135,3.5,3.5,18,0.00,SCT,,0.00,WeatherDisplay:10.37,2013-05-16 00:04:00,
2013-05-15 19:09:00,74.8,28.5,29.97,SE,135,3.8,3.8,18,0.00,SCT,,0.00,WeatherDisplay:10.37,2013-05-16 00:09:00,
2013-05-15 19:15:00,74.1,31.7,29.97,SE,135,3.8,3.8,21,0.00,SCT,,0.00,WeatherDisplay:10.37,2013-05-16 00:15:00,
2013-05-15 19:20:00,73.6,31.2,29.97,SE,135,3.5,3.5,21,0.00,SCT,,0.00,WeatherDisplay:10.37,2013-05-16 00:20:00,
2013-05-15 19:25:00,73.2,30.9,29.97,SE,135,3.5,3.5,21,0.00,SCT,,0.00,WeatherDisplay:10.37,2013-05-16 00:25:00,
2013-05-15 19:30:00,73.0,31.9,29.97,SE,135,3.5,3.5,22,0.00,SCT,,0.00,WeatherDisplay:10.37,2013-05-16 00:30:00,
2013-05-15 19:35:00,72.9,31.8,29.97,SE,135,3.5,3.5,22,0.00,SCT,,0.00,WeatherDisplay:10.37,2013-05-16 00:35:00,
2013-05-15 19:41:00,73.0,31.9,29.97,SE,135,3.5,3.5,22,0.00,SCT,,0.00,WeatherDisplay:10.37,2013-05-16 00:41:00,
2013-05-15 19:46:00,72.7,31.6,29.97,SE,135,3.5,3.5,22,0.00,SCT,,0.00,WeatherDisplay:10.37,2013-05-16 00:46:00,
2013-05-15 19:51:00,72.7,31.6,29.97,SE,135,3.5,3.5,22,0.00,SCT,,0.00,WeatherDisplay:10.37,2013-05-16 00:51:00,
2013-05-15 19:56:00,72.9,31.8,29.97,SE,135,3.8,3.8,22,0.00,SCT,,0.00,WeatherDisplay:10.37,2013-05-16 00:56:00,
2013-05-15 20:01:00,72.7,31.6,29.97,SE,135,3.5,3.5,22,0.00,SCT,,0.00,WeatherDisplay:10.37,2013-05-16 01:01:00,
2013-05-15 20:06:00,72.5,31.5,29.97,WSW,248,4.6,4.6,22,0.00,SCT,,0.00,WeatherDisplay:10.37,2013-05-16 01:06:00,
2013-05-15 20:11:00,72.3,32.4,29.97,WSW,248,4.6,4.6,23,0.00,SCT,,0.00,WeatherDisplay:10.37,2013-05-16 01:11:00,
2013-05-15 20:16:00,72.5,32.6,29.97,WSW,248,4.6,4.6,23,0.00,SCT,,0.00,WeatherDisplay:10.37,2013-05-16 01:16:00,
2013-05-15 20:22:00,72.3,32.4,29.97,WSW,248,4.6,4.6,23,0.00,SCT,,0.00,WeatherDisplay:10.37,2013-05-16 01:22:00,
2013-05-15 20:27:00,72.1,32.3,29.97,WSW,248,4.6,4.6,23,0.00,SCT,,0.00,WeatherDisplay:10.37,2013-05-16 01:27:00,
2013-05-15 20:32:00,71.8,32.0,29.97,WSW,248,4.6,4.6,23,0.00,SCT,,0.00,WeatherDisplay:10.37,2013-05-16 01:32:00,
2013-05-15 20:37:00,72.1,33.3,29.97,WSW,248,4.6,4.6,24,0.00,SCT,,0.00,WeatherDisplay:10.37,2013-05-16 01:37:00,
2013-05-15 20:43:00,72.0,32.1,29.97,WSW,248,4.6,4.6,23,0.00,SCT,,0.00,WeatherDisplay:10.37,2013-05-16 01:43:00,
2013-05-15 20:48:00,71.8,33.0,29.97,WSW,248,4.6,4.6,24,0.00,SCT,,0.00,WeatherDisplay:10.37,2013-05-16 01:48:00,
2013-05-15 20:53:00,71.6,32.9,29.97,WSW,248,4.6,4.6,24,0.00,SCT,,0.00,WeatherDisplay:10.37,2013-05-16 01:53:00,
2013-05-15 21:00:00,71.2,32.6,29.97,WSW,248,4.6,4.6,24,0.00,SCT,,0.00,WeatherDisplay:10.37,2013-05-16 02:00:00,
2013-05-15 21:05:00,71.2,33.6,29.97,WSW,248,4.6,4.6,25,0.00,SCT,,0.00,WeatherDisplay:10.37,2013-05-16 02:05:00,
2013-05-15 21:10:00,71.4,34.7,29.97,WSW,248,4.6,4.6,26,0.00,SCT,,0.00,WeatherDisplay:10.37,2013-05-16 02:10:00,
2013-05-15 21:15:00,71.8,35.0,29.97,WSW,248,4.6,4.6,26,0.00,BKN,,0.00,WeatherDisplay:10.37,2013-05-16 02:15:00,
2013-05-15 21:20:00,71.8,35.0,29.97,WSW,248,4.6,4.6,26,0.00,BKN,,0.00,WeatherDisplay:10.37,2013-05-16 02:20:00,
2013-05-15 21:26:00,72.0,34.2,29.97,WSW,248,4.6,4.6,25,0.00,BKN,,0.00,WeatherDisplay:10.37,2013-05-16 02:26:00,
2013-05-15 21:31:00,72.0,35.2,29.97,WSW,248,4.6,4.6,26,0.00,BKN,,0.00,WeatherDisplay:10.37,2013-05-16 02:31:00,
2013-05-15 21:36:00,72.0,35.2,29.97,WSW,248,4.6,4.6,26,0.00,BKN,,0.00,WeatherDisplay:10.37,2013-05-16 02:36:00,
2013-05-15 21:42:00,72.1,35.3,29.97,WSW,248,4.6,4.6,26,0.00,BKN,,0.00,WeatherDisplay:10.37,2013-05-16 02:42:00,
2013-05-15 21:47:00,72.0,35.2,29.94,WSW,248,4.6,4.6,26,0.00,BKN,,0.00,WeatherDisplay:10.37,2013-05-16 02:47:00,
2013-05-15 21:52:00,72.0,35.2,29.94,WSW,248,4.6,4.6,26,0.00,BKN,,0.00,WeatherDisplay:10.37,2013-05-16 02:52:00,
2013-05-15 21:57:00,72.0,35.2,29.94,SSE,158,5.8,5.8,26,0.00,BKN,,0.00,WeatherDisplay:10.37,2013-05-16 02:57:00,
2013-05-15 22:03:00,72.0,35.2,29.97,East,90,4.6,4.6,26,0.00,CLR,,0.00,WeatherDisplay:10.37,2013-05-16 03:03:00,
2013-05-15 22:08:00,71.6,34.9,29.97,WNW,292,0.0,0.0,26,0.00,CLR,,0.00,WeatherDisplay:10.37,2013-05-16 03:08:00,
2013-05-15 22:13:00,71.2,35.5,29.97,SSW,202,0.0,2.0,27,0.00,CLR,,0.00,WeatherDisplay:10.37,2013-05-16 03:13:00,
2013-05-15 22:18:00,71.2,35.5,29.97,SSW,202,0.0,2.0,27,0.00,CLR,,0.00,WeatherDisplay:10.37,2013-05-16 03:18:00,
2013-05-15 22:23:00,71.2,37.3,29.97,SSW,202,0.0,2.0,29,0.00,CLR,,0.00,WeatherDisplay:10.37,2013-05-16 03:23:00,
2013-05-15 22:28:00,71.4,37.5,29.97,SSW,202,0.0,2.0,29,0.00,CLR,,0.00,WeatherDisplay:10.37,2013-05-16 03:28:00,
2013-05-15 22:34:00,71.4,38.4,29.97,SSW,202,0.0,2.0,30,0.00,CLR,,0.00,WeatherDisplay:10.37,2013-05-16 03:34:00,
2013-05-15 22:39:00,71.2,38.2,29.97,SSW,202,0.0,2.0,30,0.00,CLR,,0.00,WeatherDisplay:10.37,2013-05-16 03:39:00,
2013-05-15 22:44:00,71.2,38.2,29.97,SSW,202,0.0,2.0,30,0.00,CLR,,0.00,WeatherDisplay:10.37,2013-05-16 03:44:00,
2013-05-15 22:50:00,71.1,38.0,29.97,SSW,202,0.0,2.0,30,0.00,CLR,,0.00,WeatherDisplay:10.37,2013-05-16 03:50:00,
2013-05-15 22:55:00,71.2,39.0,29.97,SSW,202,0.0,2.0,31,0.00,CLR,,0.00,WeatherDisplay:10.37,2013-05-16 03:55:00,
2013-05-15 23:01:00,71.2,39.0,29.97,SSW,202,0.0,2.0,31,0.00,SCT,,0.00,WeatherDisplay:10.37,2013-05-16 04:01:00,
2013-05-15 23:06:00,71.1,38.9,29.97,SSW,202,0.0,2.0,31,0.00,SCT,,0.00,WeatherDisplay:10.37,2013-05-16 04:06:00,
2013-05-15 23:11:00,71.1,38.9,29.97,SSW,202,0.0,2.0,31,0.00,SCT,,0.00,WeatherDisplay:10.37,2013-05-16 04:11:00,
2013-05-15 23:16:00,71.1,39.7,29.97,SSW,202,0.0,2.0,32,0.00,SCT,,0.00,WeatherDisplay:10.37,2013-05-16 04:16:00,
2013-05-15 23:21:00,71.1,39.7,29.97,SSW,202,0.0,2.0,32,0.00,SCT,,0.00,WeatherDisplay:10.37,2013-05-16 04:21:00,
2013-05-15 23:26:00,71.1,39.7,29.97,SSW,202,0.0,2.0,32,0.00,SCT,,0.00,WeatherDisplay:10.37,2013-05-16 04:26:00,
2013-05-15 23:31:00,71.1,39.7,29.97,SSW,202,0.0,2.0,32,0.00,SCT,,0.00,WeatherDisplay:10.37,2013-05-16 04:31:00,
2013-05-15 23:36:00,71.1,39.7,29.97,SSW,202,0.0,2.0,32,0.00,SCT,,0.00,WeatherDisplay:10.37,2013-05-16 04:36:00,
2013-05-15 23:41:00,71.1,39.7,29.97,SSW,202,0.0,2.0,32,0.00,SCT,,0.00,WeatherDisplay:10.37,2013-05-16 04:41:00,
2013-05-15 23:46:00,71.1,39.7,29.97,SSW,202,0.0,2.0,32,0.00,SCT,,0.00,WeatherDisplay:10.37,2013-05-16 04:46:00,
2013-05-15 23:51:00,71.1,39.7,29.97,SSW,202,0.0,2.0,32,0.00,SCT,,0.00,WeatherDisplay:10.37,2013-05-16 04:51:00,
2013-05-15 23:56:00,71.2,39.9,29.97,SSW,202,0.0,2.0,32,0.00,SCT,,0.00,WeatherDisplay:10.37,2013-05-16 04:56:00,